| time (UTC) | temp C | wind direction | speed KPH | gust KPH | rain 1hr cm | rain 24hr cm | rain mn cm | humidity % | barometer mb |
| 20260503014003 | 16 | 167 | 1.6 | 3.2 | 0.00 | 0.00 | 0.00 | 42 | 1008.4 |
| 20260503013503 | 16 | 193 | 1.6 | 4.8 | 0.00 | 0.00 | 0.00 | 41 | 1008.4 |
| 20260503013004 | 16 | 209 | 3.2 | 9.7 | 0.00 | 0.00 | 0.00 | 40 | 1008.3 |
| 20260503012716 | 16 | 212 | 3.2 | 9.7 | 0.00 | 0.00 | 0.00 | 40 | 1008.4 |
| 20260503012003 | 17 | 229 | 4.8 | 16.1 | 0.00 | 0.00 | 0.00 | 39 | 1008.3 |
| 20260503011504 | 17 | 228 | 4.8 | 16.1 | 0.00 | 0.00 | 0.00 | 39 | 1008.4 |
| 20260503011004 | 16 | 233 | 4.8 | 16.1 | 0.00 | 0.00 | 0.00 | 40 | 1008.4 |
| 20260503010504 | 16 | 244 | 4.8 | 16.1 | 0.00 | 0.00 | 0.00 | 40 | 1008.5 |
| 20260503010003 | 16 | 233 | 3.2 | 12.9 | 0.00 | 0.00 | 0.00 | 40 | 1008.5 |
| 20260503005503 | 16 | 208 | 1.6 | 4.8 | 0.00 | 0.00 | 0.00 | 41 | 1008.4 |
| 20260503005004 | 16 | 217 | 1.6 | 4.8 | 0.00 | 0.00 | 0.00 | 41 | 1008.5 |
| 20260503004504 | 16 | 240 | 3.2 | 9.7 | 0.00 | 0.00 | 0.00 | 40 | 1008.6 |
| 20260503004003 | 17 | 270 | 3.2 | 9.7 | 0.00 | 0.00 | 0.00 | 39 | 1008.6 |
| 20260503003504 | 17 | 287 | 3.2 | 12.9 | 0.00 | 0.00 | 0.00 | 40 | 1008.7 |
| 20260503003004 | 17 | 255 | 4.8 | 14.5 | 0.00 | 0.00 | 0.00 | 39 | 1008.8 |
| 20260503002503 | 17 | 228 | 4.8 | 19.3 | 0.00 | 0.00 | 0.00 | 39 | 1008.9 |
| 20260503002003 | 17 | 224 | 3.2 | 19.3 | 0.00 | 0.00 | 0.00 | 39 | 1009.0 |
| 20260503001504 | 17 | 220 | 1.6 | 6.4 | 0.00 | 0.00 | 0.00 | 40 | 1009.0 |
| 20260503001004 | 17 | 222 | 3.2 | 6.4 | 0.00 | 0.00 | 0.00 | 39 | 1008.9 |
| 20260503000503 | 17 | 218 | 1.6 | 6.4 | 0.00 | 0.00 | 0.00 | 39 | 1008.9 |
| 20260503000218 | 17 | 209 | 1.6 | 6.4 | 0.00 | 0.00 | 0.00 | 39 | 1009.0 |
| 20260502235503 | 17 | 214 | 1.6 | 6.4 | 0.00 | 0.00 | 0.00 | 38 | 1009.0 |
| 20260502235003 | 17 | 218 | 3.2 | 8.0 | 0.00 | 0.00 | 0.00 | 38 | 1009.1 |
| 20260502234503 | 17 | 222 | 4.8 | 9.7 | 0.00 | 0.00 | 0.00 | 39 | 1009.1 |
| 20260502234004 | 17 | 229 | 3.2 | 14.5 | 0.00 | 0.00 | 0.00 | 38 | 1009.2 |
| 20260502233504 | 17 | 231 | 3.2 | 16.1 | 0.00 | 0.00 | 0.00 | 38 | 1009.2 |
| 20260502233214 | 17 | 228 | 3.2 | 16.1 | 0.00 | 0.00 | 0.00 | 38 | 1009.3 |
| 20260502232504 | 17 | 218 | 4.8 | 16.1 | 0.00 | 0.00 | 0.00 | 37 | 1009.3 |
| 20260502232215 | 17 | 216 | 6.4 | 16.1 | 0.00 | 0.00 | 0.00 | 37 | 1009.4 |
| 20260502231503 | 17 | 217 | 6.4 | 20.9 | 0.00 | 0.00 | 0.00 | 38 | 1009.5 |
| 20260502231003 | 17 | 221 | 4.8 | 9.7 | 0.00 | 0.00 | 0.00 | 39 | 1009.5 |
| 20260502230504 | 17 | 215 | 4.8 | 8.0 | 0.00 | 0.00 | 0.00 | 39 | 1009.6 |
| 20260502230004 | 17 | 203 | 4.8 | 9.7 | 0.00 | 0.00 | 0.00 | 38 | 1009.5 |
| 20260502225715 | 17 | 201 | 4.8 | 11.3 | 0.00 | 0.00 | 0.00 | 39 | 1009.5 |
| 20260502225003 | 17 | 197 | 4.8 | 11.3 | 0.00 | 0.00 | 0.00 | 37 | 1009.6 |
| 20260502224504 | 17 | 196 | 4.8 | 12.9 | 0.00 | 0.00 | 0.00 | 38 | 1009.6 |
| 20260502224003 | 17 | 204 | 4.8 | 12.9 | 0.00 | 0.00 | 0.00 | 37 | 1009.7 |
| 20260502223503 | 17 | 195 | 4.8 | 9.7 | 0.00 | 0.00 | 0.00 | 39 | 1009.8 |
| 20260502223004 | 17 | 191 | 4.8 | 9.7 | 0.00 | 0.00 | 0.00 | 37 | 1009.8 |
| 20260502222718 | 17 | 202 | 4.8 | 11.3 | 0.00 | 0.00 | 0.00 | 36 | 1009.9 |
| 20260502222004 | 17 | 204 | 4.8 | 16.1 | 0.00 | 0.00 | 0.00 | 36 | 1009.8 |
| 20260502221503 | 17 | 204 | 4.8 | 14.5 | 0.00 | 0.00 | 0.00 | 36 | 1009.9 |
| 20260502221003 | 17 | 213 | 6.4 | 16.1 | 0.00 | 0.00 | 0.00 | 36 | 1009.9 |
| 20260502220503 | 17 | 212 | 6.4 | 16.1 | 0.00 | 0.00 | 0.00 | 36 | 1010.0 |
| 20260502220218 | 17 | 215 | 4.8 | 16.1 | 0.00 | 0.00 | 0.00 | 36 | 1010.0 |
| 20260502215715 | 17 | 207 | 6.4 | 14.5 | 0.00 | 0.00 | 0.00 | 37 | 1010.1 |
| 20260502215003 | 17 | 206 | 9.7 | 17.7 | 0.00 | 0.00 | 0.00 | 35 | 1010.2 |
| 20260502214717 | 17 | 208 | 9.7 | 17.7 | 0.00 | 0.00 | 0.00 | 36 | 1010.2 |
| 20260502214004 | 17 | 216 | 8.0 | 14.5 | 0.00 | 0.00 | 0.00 | 36 | 1010.3 |
| 20260502213503 | 17 | 208 | 8.0 | 17.7 | 0.00 | 0.00 | 0.00 | 35 | 1010.4 |
| 20260502213003 | 17 | 194 | 8.0 | 17.7 | 0.00 | 0.00 | 0.00 | 37 | 1010.6 |
| 20260502212713 | 17 | 195 | 8.0 | 17.7 | 0.00 | 0.00 | 0.00 | 34 | 1010.6 |
| 20260502212216 | 17 | 201 | 9.7 | 20.9 | 0.00 | 0.00 | 0.00 | 34 | 1010.7 |
| 20260502211714 | 17 | 202 | 11.3 | 20.9 | 0.00 | 0.00 | 0.00 | 34 | 1010.8 |
| 20260502211003 | 17 | 212 | 9.7 | 22.5 | 0.00 | 0.00 | 0.00 | 35 | 1010.8 |
| 20260502210503 | 18 | 211 | 6.4 | 14.5 | 0.00 | 0.00 | 0.00 | 34 | 1011.0 |
| 20260502210004 | 17 | 234 | 6.4 | 17.7 | 0.00 | 0.00 | 0.00 | 34 | 1011.0 |
| 20260502205503 | 17 | 235 | 8.0 | 17.7 | 0.00 | 0.00 | 0.00 | 34 | 1011.1 |
| 20260502205004 | 17 | 221 | 9.7 | 20.9 | 0.00 | 0.00 | 0.00 | 34 | 1011.3 |
| 20260502204503 | 17 | 221 | 9.7 | 20.9 | 0.00 | 0.00 | 0.00 | 34 | 1011.3 |
| 20260502204004 | 17 | 227 | 8.0 | 20.9 | 0.00 | 0.00 | 0.00 | 32 | 1011.6 |
| 20260502203503 | 17 | 234 | 4.8 | 14.5 | 0.00 | 0.00 | 0.00 | 34 | 1011.6 |
| 20260502203004 | 17 | 237 | 6.4 | 17.7 | 0.00 | 0.00 | 0.00 | 34 | 1011.8 |
| 20260502202504 | 17 | 220 | 9.7 | 20.9 | 0.00 | 0.00 | 0.00 | 34 | 1011.9 |
| 20260502202003 | 17 | 216 | 11.3 | 20.9 | 0.00 | 0.00 | 0.00 | 33 | 1012.0 |
| 20260502201503 | 17 | 227 | 8.0 | 19.3 | 0.00 | 0.00 | 0.00 | 34 | 1012.1 |
| 20260502201003 | 17 | 206 | 9.7 | 27.4 | 0.00 | 0.00 | 0.00 | 34 | 1012.2 |
| 20260502200503 | 17 | 183 | 9.7 | 27.4 | 0.00 | 0.00 | 0.00 | 35 | 1012.1 |
| 20260502200004 | 17 | 198 | 6.4 | 16.1 | 0.00 | 0.00 | 0.00 | 33 | 1012.3 |
| 20260502195504 | 17 | 220 | 8.0 | 19.3 | 0.00 | 0.00 | 0.00 | 33 | 1012.3 |
| 20260502195003 | 16 | 217 | 11.3 | 22.5 | 0.00 | 0.00 | 0.00 | 39 | 1012.4 |
| 20260502194718 | 16 | 218 | 11.3 | 22.5 | 0.00 | 0.00 | 0.00 | 37 | 1012.4 |
| 20260502194003 | 16 | 217 | 9.7 | 20.9 | 0.00 | 0.00 | 0.00 | 34 | 1012.6 |
| 20260502193503 | 16 | 224 | 8.0 | 17.7 | 0.00 | 0.00 | 0.00 | 34 | 1012.6 |
| 20260502193004 | 16 | 223 | 9.7 | 19.3 | 0.00 | 0.00 | 0.00 | 35 | 1012.7 |
| 20260502192504 | 16 | 226 | 11.3 | 20.9 | 0.00 | 0.00 | 0.00 | 33 | 1012.9 |
| 20260502192004 | 16 | 230 | 8.0 | 20.9 | 0.00 | 0.00 | 0.00 | 35 | 1013.1 |
| 20260502191715 | 16 | 236 | 8.0 | 20.9 | 0.00 | 0.00 | 0.00 | 35 | 1013.0 |
| 20260502191004 | 15 | 223 | 9.7 | 20.9 | 0.00 | 0.00 | 0.00 | 34 | 1013.3 |
| 20260502190503 | 16 | 238 | 8.0 | 16.1 | 0.00 | 0.00 | 0.00 | 35 | 1013.2 |
| 20260502190004 | 15 | 244 | 8.0 | 16.1 | 0.00 | 0.00 | 0.00 | 35 | 1013.4 |
| 20260502185504 | 16 | 243 | 6.4 | 16.1 | 0.00 | 0.00 | 0.00 | 36 | 1013.5 |
| 20260502185003 | 16 | 219 | 6.4 | 17.7 | 0.00 | 0.00 | 0.00 | 38 | 1013.5 |
| 20260502184503 | 15 | 216 | 11.3 | 20.9 | 0.00 | 0.00 | 0.00 | 35 | 1013.5 |
| 20260502184216 | 15 | 219 | 11.3 | 20.9 | 0.00 | 0.00 | 0.00 | 34 | 1013.6 |
| 20260502183503 | 15 | 217 | 8.0 | 14.5 | 0.00 | 0.00 | 0.00 | 36 | 1013.7 |
| 20260502183003 | 15 | 223 | 9.7 | 20.9 | 0.00 | 0.00 | 0.00 | 37 | 1013.7 |
| 20260502182503 | 15 | 225 | 9.7 | 20.9 | 0.00 | 0.00 | 0.00 | 35 | 1013.9 |
| 20260502182004 | 15 | 225 | 8.0 | 19.3 | 0.00 | 0.00 | 0.00 | 34 | 1014.0 |
| 20260502181503 | 15 | 212 | 9.7 | 20.9 | 0.00 | 0.00 | 0.00 | 38 | 1014.0 |
| 20260502181004 | 15 | 202 | 11.3 | 20.9 | 0.00 | 0.00 | 0.00 | 36 | 1014.2 |
| 20260502180504 | 15 | 216 | 8.0 | 19.3 | 0.00 | 0.00 | 0.00 | 35 | 1014.1 |
| 20260502170504 | 13 | 210 | 9.7 | 20.9 | 0.00 | 0.00 | 0.00 | 35 | 1015.1 |
| 20260502170215 | 13 | 206 | 9.7 | 19.3 | 0.00 | 0.00 | 0.00 | 36 | 1015.2 |
| 20260502164004 | 13 | 250 | 4.8 | 16.1 | 0.00 | 0.00 | 0.00 | 36 | 1015.5 |
| 20260502163715 | 13 | 247 | 4.8 | 16.1 | 0.00 | 0.00 | 0.00 | 35 | 1015.5 |
| 20260502163219 | 14 | 248 | 4.8 | 14.5 | 0.00 | 0.00 | 0.00 | 37 | 1015.5 |
| 20260502162716 | 14 | 253 | 4.8 | 12.9 | 0.00 | 0.00 | 0.00 | 35 | 1015.7 |
| 20260502162004 | 13 | 249 | 4.8 | 12.9 | 0.00 | 0.00 | 0.00 | 37 | 1015.7 |
| 20260502161503 | 13 | 233 | 6.4 | 20.9 | 0.00 | 0.00 | 0.00 | 36 | 1015.7 |
| 20260502161004 | 13 | 233 | 8.0 | 20.9 | 0.00 | 0.00 | 0.00 | 39 | 1015.8 |
| 20260502160504 | 13 | 267 | 6.4 | 16.1 | 0.00 | 0.00 | 0.00 | 39 | 1015.9 |
| 20260502152004 | 12 | 232 | 6.4 | 19.3 | 0.00 | 0.00 | 0.00 | 41 | 1016.3 |
| 20260502151503 | 12 | 241 | 6.4 | 14.5 | 0.00 | 0.00 | 0.00 | 42 | 1016.4 |
| 20260502151004 | 12 | 243 | 6.4 | 20.9 | 0.00 | 0.00 | 0.00 | 42 | 1016.4 |
| 20260502150714 | 12 | 244 | 6.4 | 20.9 | 0.00 | 0.00 | 0.00 | 42 | 1016.4 |
| 20260502130504 | 6 | 242 | 3.2 | 8.0 | 0.00 | 0.00 | 0.00 | 66 | 1017.0 |
| 20260502123503 | 5 | 228 | 3.2 | 6.4 | 0.00 | 0.00 | 0.00 | 68 | 1016.9 |
| 20260502123003 | 5 | 220 | 1.6 | 6.4 | 0.00 | 0.00 | 0.00 | 70 | 1016.8 |
| 20260502122504 | 5 | 222 | 1.6 | 4.8 | 0.00 | 0.00 | 0.00 | 69 | 1016.8 |
| 20260502122003 | 5 | 219 | 1.6 | 3.2 | 0.00 | 0.00 | 0.00 | 69 | 1016.8 |
| 20260502121504 | 4 | 216 | 1.6 | 3.2 | 0.00 | 0.00 | 0.00 | 69 | 1016.9 |
| 20260502121004 | 4 | 224 | 0.0 | 3.2 | 0.00 | 0.00 | 0.00 | 72 | 1016.9 |
| 20260502120504 | 3 | 224 | 0.0 | 1.6 | 0.00 | 0.00 | 0.00 | 72 | 1016.9 |
| 20260502115717 | 3 | 0 | 0.0 | 0.0 | 0.00 | 0.00 | 0.00 | 73 | 1016.9 |
| 20260502115004 | 2 | 0 | 0.0 | 0.0 | 0.00 | 0.00 | 0.00 | 76 | 1016.8 |
| 20260502114504 | 2 | 0 | 0.0 | 0.0 | 0.00 | 0.00 | 0.00 | 76 | 1016.7 |
| 20260502114004 | 1 | 0 | 0.0 | 0.0 | 0.00 | 0.00 | 0.00 | 78 | 1016.7 |
| 20260502113503 | 1 | 0 | 0.0 | 0.0 | 0.00 | 0.00 | 0.00 | 79 | 1016.7 |
| 20260502113216 | 0 | 0 | 0.0 | 0.0 | 0.00 | 0.00 | 0.00 | 80 | 1016.7 |
| 20260502112503 | 0 | 0 | 0.0 | 0.0 | 0.00 | 0.00 | 0.00 | 82 | 1016.6 |
| 20260502112003 | 0 | 0 | 0.0 | 0.0 | 0.00 | 0.00 | 0.00 | 82 | 1016.7 |
| 20260502111504 | 0 | 0 | 0.0 | 0.0 | 0.00 | 0.00 | 0.00 | 82 | 1016.6 |
| 20260502111004 | 0 | 0 | 0.0 | 0.0 | 0.00 | 0.00 | 0.00 | 81 | 1016.7 |
| 20260502110716 | 0 | 0 | 0.0 | 0.0 | 0.00 | 0.00 | 0.00 | 80 | 1016.7 |
| 20260502110004 | 0 | 0 | 0.0 | 0.0 | 0.00 | 0.00 | 0.00 | 78 | 1016.7 |
| 20260502105717 | 0 | 0 | 0.0 | 0.0 | 0.00 | 0.00 | 0.00 | 78 | 1016.7 |
| 20260502105003 | 0 | 210 | 0.0 | 1.6 | 0.00 | 0.00 | 0.00 | 77 | 1016.7 |
| 20260502104503 | 1 | 210 | 0.0 | 1.6 | 0.00 | 0.00 | 0.00 | 76 | 1016.7 |
| 20260502104004 | 1 | 0 | 0.0 | 0.0 | 0.00 | 0.00 | 0.00 | 77 | 1016.7 |
| 20260502103504 | 1 | 0 | 0.0 | 0.0 | 0.00 | 0.00 | 0.00 | 77 | 1016.7 |
| 20260502103217 | 0 | 0 | 0.0 | 0.0 | 0.00 | 0.00 | 0.00 | 78 | 1016.7 |
| 20260502102715 | 0 | 134 | 0.0 | 1.6 | 0.00 | 0.00 | 0.00 | 77 | 1016.7 |
| 20260502102004 | 1 | 168 | 0.0 | 1.6 | 0.00 | 0.00 | 0.00 | 76 | 1016.7 |
| 20260502101503 | 1 | 231 | 0.0 | 1.6 | 0.00 | 0.00 | 0.00 | 75 | 1016.6 |
| 20260502101003 | 1 | 225 | 0.0 | 3.2 | 0.00 | 0.00 | 0.00 | 76 | 1016.6 |
| 20260502100717 | 1 | 228 | 0.0 | 3.2 | 0.00 | 0.00 | 0.00 | 76 | 1016.6 |
| 20260502091503 | 1 | 243 | 0.0 | 1.6 | 0.00 | 0.00 | 0.00 | 76 | 1016.5 |
| 20260502091004 | 1 | 240 | 0.0 | 1.6 | 0.00 | 0.00 | 0.00 | 76 | 1016.5 |
| 20260502090504 | 1 | 243 | 0.0 | 1.6 | 0.00 | 0.00 | 0.00 | 76 | 1016.6 |
| 20260502090215 | 1 | 243 | 0.0 | 1.6 | 0.00 | 0.00 | 0.00 | 76 | 1016.5 |
| 20260502071503 | -1 | 0 | 0.0 | 0.0 | 0.00 | 0.00 | 0.00 | 83 | 1016.8 |
| 20260502071003 | -1 | 0 | 0.0 | 0.0 | 0.00 | 0.00 | 0.00 | 83 | 1016.8 |
| 20260502070504 | -1 | 0 | 0.0 | 0.0 | 0.00 | 0.00 | 0.00 | 82 | 1016.8 |
| 20260502070004 | 0 | 0 | 0.0 | 0.0 | 0.00 | 0.00 | 0.00 | 81 | 1016.8 |
| 20260502065715 | 0 | 0 | 0.0 | 0.0 | 0.00 | 0.00 | 0.00 | 81 | 1016.9 |
| 20260502065218 | 0 | 0 | 0.0 | 0.0 | 0.00 | 0.00 | 0.00 | 81 | 1016.9 |
| 20260502064504 | 0 | 0 | 0.0 | 0.0 | 0.00 | 0.00 | 0.00 | 82 | 1016.9 |
| 20260502064003 | 0 | 0 | 0.0 | 0.0 | 0.00 | 0.00 | 0.00 | 81 | 1016.9 |
| 20260502063503 | 0 | 0 | 0.0 | 0.0 | 0.00 | 0.00 | 0.00 | 80 | 1016.9 |
| 20260502063003 | 0 | 0 | 0.0 | 0.0 | 0.00 | 0.00 | 0.00 | 79 | 1016.9 |
| 20260502062504 | 0 | 0 | 0.0 | 0.0 | 0.00 | 0.00 | 0.00 | 79 | 1016.9 |
| 20260502062004 | 0 | 0 | 0.0 | 0.0 | 0.00 | 0.00 | 0.00 | 80 | 1016.9 |
| 20260502061503 | 0 | 0 | 0.0 | 0.0 | 0.00 | 0.00 | 0.00 | 80 | 1016.9 |
| 20260502061003 | 0 | 0 | 0.0 | 0.0 | 0.00 | 0.00 | 0.00 | 80 | 1016.9 |
| 20260502060503 | 0 | 0 | 0.0 | 0.0 | 0.00 | 0.00 | 0.00 | 78 | 1016.9 |
| 20260502060003 | 0 | 0 | 0.0 | 0.0 | 0.00 | 0.00 | 0.00 | 77 | 1017.0 |
| 20260502055503 | 0 | 0 | 0.0 | 0.0 | 0.00 | 0.00 | 0.00 | 76 | 1017.0 |
| 20260502055003 | 0 | 0 | 0.0 | 0.0 | 0.00 | 0.00 | 0.00 | 75 | 1017.0 |
| 20260502054716 | 1 | 0 | 0.0 | 0.0 | 0.00 | 0.00 | 0.00 | 75 | 1017.0 |
| 20260502054004 | 1 | 0 | 0.0 | 0.0 | 0.00 | 0.00 | 0.00 | 74 | 1017.0 |
| 20260502053717 | 1 | 0 | 0.0 | 0.0 | 0.00 | 0.00 | 0.00 | 75 | 1017.0 |
| 20260502053215 | 0 | 0 | 0.0 | 0.0 | 0.00 | 0.00 | 0.00 | 76 | 1017.0 |
| 20260502052713 | 1 | 0 | 0.0 | 0.0 | 0.00 | 0.00 | 0.00 | 74 | 1017.0 |
| 20260502052004 | 1 | 0 | 0.0 | 0.0 | 0.00 | 0.00 | 0.00 | 72 | 1017.0 |
| 20260502051504 | 1 | 0 | 0.0 | 0.0 | 0.00 | 0.00 | 0.00 | 71 | 1017.0 |
| 20260502051004 | 2 | 0 | 0.0 | 0.0 | 0.00 | 0.00 | 0.00 | 70 | 1016.9 |
| 20260502050505 | 2 | 0 | 0.0 | 0.0 | 0.00 | 0.00 | 0.00 | 68 | 1017.0 |
| 20260502050007 | 2 | 240 | 0.0 | 1.6 | 0.00 | 0.00 | 0.00 | 67 | 1016.9 |
| 20260502045504 | 2 | 240 | 0.0 | 1.6 | 0.00 | 0.00 | 0.00 | 66 | 1016.9 |
| 20260502045214 | 2 | 240 | 0.0 | 1.6 | 0.00 | 0.00 | 0.00 | 68 | 1016.8 |
| 20260502044503 | 2 | 240 | 0.0 | 1.6 | 0.00 | 0.00 | 0.00 | 68 | 1016.8 |
| 20260502044215 | 2 | 240 | 0.0 | 1.6 | 0.00 | 0.00 | 0.00 | 67 | 1016.8 |
| 20260502043504 | 3 | 240 | 0.0 | 1.6 | 0.00 | 0.00 | 0.00 | 64 | 1016.9 |
| 20260502043004 | 4 | 240 | 0.0 | 1.6 | 0.00 | 0.00 | 0.00 | 60 | 1016.9 |
| 20260502042503 | 5 | 240 | 0.0 | 1.6 | 0.00 | 0.00 | 0.00 | 58 | 1016.9 |
| 20260502042003 | 5 | 240 | 0.0 | 1.6 | 0.00 | 0.00 | 0.00 | 56 | 1016.9 |
| 20260502041503 | 5 | 240 | 0.0 | 1.6 | 0.00 | 0.00 | 0.00 | 55 | 1016.9 |
| 20260502041212 | 5 | 239 | 0.0 | 1.6 | 0.00 | 0.00 | 0.00 | 55 | 1016.9 |
| 20260502040504 | 5 | 236 | 0.0 | 1.6 | 0.00 | 0.00 | 0.00 | 55 | 1016.9 |
| 20260502040004 | 5 | 238 | 0.0 | 1.6 | 0.00 | 0.00 | 0.00 | 54 | 1016.9 |
| 20260502035504 | 5 | 231 | 0.0 | 1.6 | 0.00 | 0.00 | 0.00 | 53 | 1016.9 |
| 20260502035004 | 5 | 226 | 0.0 | 1.6 | 0.00 | 0.00 | 0.00 | 53 | 1016.9 |
| 20260502034503 | 6 | 223 | 0.0 | 1.6 | 0.00 | 0.00 | 0.00 | 51 | 1017.0 |
| 20260502034003 | 6 | 193 | 0.0 | 1.6 | 0.00 | 0.00 | 0.00 | 51 | 1016.9 |
| 20260502033504 | 6 | 206 | 0.0 | 1.6 | 0.00 | 0.00 | 0.00 | 51 | 1017.0 |
| 20260502033004 | 6 | 214 | 0.0 | 1.6 | 0.00 | 0.00 | 0.00 | 49 | 1017.0 |
| 20260502032505 | 7 | 217 | 0.0 | 1.6 | 0.00 | 0.00 | 0.00 | 50 | 1017.0 |
| 20260502032004 | 7 | 211 | 0.0 | 1.6 | 0.00 | 0.00 | 0.00 | 48 | 1016.9 |
| 20260502031503 | 7 | 208 | 0.0 | 1.6 | 0.00 | 0.00 | 0.00 | 47 | 1016.9 |
| 20260502031213 | 7 | 211 | 0.0 | 1.6 | 0.00 | 0.00 | 0.00 | 47 | 1016.9 |
| 20260502030503 | 7 | 232 | 0.0 | 3.2 | 0.00 | 0.00 | 0.00 | 47 | 1016.9 |
| 20260502030003 | 7 | 235 | 1.6 | 3.2 | 0.00 | 0.00 | 0.00 | 45 | 1016.9 |
| 20260502025504 | 7 | 228 | 1.6 | 3.2 | 0.00 | 0.00 | 0.00 | 47 | 1017.0 |
| 20260502025004 | 7 | 224 | 1.6 | 3.2 | 0.00 | 0.00 | 0.00 | 47 | 1016.9 |
| 20260502024503 | 7 | 221 | 1.6 | 4.8 | 0.00 | 0.00 | 0.00 | 47 | 1016.9 |
| 20260502024004 | 7 | 221 | 1.6 | 4.8 | 0.00 | 0.00 | 0.00 | 46 | 1016.9 |
| 20260502023714 | 7 | 220 | 1.6 | 4.8 | 0.00 | 0.00 | 0.00 | 47 | 1016.9 |
| 20260502023004 | 6 | 215 | 0.0 | 1.6 | 0.00 | 0.00 | 0.00 | 50 | 1016.8 |
| 20260502022503 | 6 | 218 | 0.0 | 1.6 | 0.00 | 0.00 | 0.00 | 52 | 1016.9 |
| 20260502022003 | 6 | 244 | 0.0 | 1.6 | 0.00 | 0.00 | 0.00 | 51 | 1016.8 |
| 20260502021716 | 6 | 245 | 0.0 | 1.6 | 0.00 | 0.00 | 0.00 | 52 | 1016.8 |
| 20260502021003 | 6 | 245 | 0.0 | 1.6 | 0.00 | 0.00 | 0.00 | 54 | 1016.7 |
| 20260502020504 | 6 | 245 | 0.0 | 1.6 | 0.00 | 0.00 | 0.00 | 53 | 1016.7 |
| 20260502020215 | 6 | 245 | 0.0 | 1.6 | 0.00 | 0.00 | 0.00 | 52 | 1016.7 |
| 20260502015503 | 6 | 245 | 0.0 | 1.6 | 0.00 | 0.00 | 0.00 | 52 | 1016.6 |
| 20260502015216 | 6 | 245 | 0.0 | 1.6 | 0.00 | 0.00 | 0.00 | 52 | 1016.6 |
| 20260502014503 | 6 | 0 | 0.0 | 0.0 | 0.00 | 0.00 | 0.00 | 51 | 1016.5 |
| 20260502014217 | 7 | 245 | 0.0 | 1.6 | 0.00 | 0.00 | 0.00 | 51 | 1016.5 |